Thunder radar more information blitzortung!


Radar de pluja more information rain snow radar


Visita la nostra xarxa de llocs de meteo:

Template documentation
and downloads

And another site



Extreme low temperature From: 13-12-2017 09:00 Until: 09:59 warning for: Extreme low temperature Level: Yellow info button

Pagina Historial Weather Underground text

Diari Resum January 1, 2016 Unitats:  Mètric    Imperial   Tant
« Previous Dia
SegĂźent Dia »
Diari Setmana Mensual Anual Personalitzada
  Maxima: Minima: Media:
Temperatura: 14.2 °C 8.4 °C 11.8 °C
Punt de rosada: 9.7 °C 4.1 °C 8.4 °C
Humitat: 90 % 73 % 80 %
Wind Speed: 9.3 km/h 0.0 km/h 4.1 km/h
RĂ fegues de vent: 9.3 km/h - -
Vent:- - SSW
Pression baro: 1027.0 hPa 1018.8 hPa -
Precipitacions: 0.0 mm    
Historical Graphs
 
 
Dades de taula per January 1, 2016
Temps Temperatura Punt de rosada Pression baro Vent Wind Speed RĂ fegues de vent Humitat Rainfall Rate (Hourly)
00:02 9.4 °C 4.8 °C 1027.0 hPa Calm     73 % 0.0 mm
00:07 9.2 °C 4.6 °C 1027.0 hPa NE 3.7 km/h 3.7 km/h 73 % 0.0 mm
00:12 9.1 °C 4.7 °C 1026.0 hPa NE 2.3 km/h   74 % 0.0 mm
00:17 8.9 °C 4.5 °C 1026.0 hPa NE 5.0 km/h 5.0 km/h 74 % 0.0 mm
00:22 8.7 °C 4.3 °C 1026.0 hPa ENE 5.6 km/h 5.6 km/h 74 % 0.0 mm
00:27 8.5 °C 4.1 °C 1027.0 hPa Calm     74 % 0.0 mm
00:32 8.5 °C 4.1 °C 1027.0 hPa ENE 1.9 km/h   74 % 0.0 mm
00:37 8.4 °C 4.1 °C 1027.0 hPa ENE 1.9 km/h   74 % 0.0 mm
11:57 9.8 °C 6.3 °C 1026.0 hPa SSW 3.7 km/h   79 % 0.0 mm
12:02 9.9 °C 6.4 °C 1026.0 hPa SW 1.9 km/h   79 % 0.0 mm
12:07 10.2 °C 6.7 °C 1026.0 hPa Calm     79 % 0.0 mm
12:12 10.3 °C 6.8 °C 1024.9 hPa SSW 2.6 km/h 2.6 km/h 79 % 0.0 mm
12:17 10.4 °C 6.9 °C 1024.9 hPa Calm     79 % 0.0 mm
12:22 10.5 °C 6.8 °C 1024.9 hPa SSE 1.9 km/h   78 % 0.0 mm
12:27 10.4 °C 6.7 °C 1024.9 hPa ESE 3.7 km/h 3.9 km/h 78 % 0.0 mm
12:32 10.5 °C 6.8 °C 1024.9 hPa ENE 1.9 km/h 1.9 km/h 78 % 0.0 mm
12:37 10.6 °C 6.9 °C 1024.9 hPa ENE 1.9 km/h   78 % 0.0 mm
12:42 10.8 °C 7.1 °C 1024.9 hPa Calm     78 % 0.0 mm
12:48 10.9 °C 7.2 °C 1024.9 hPa ENE 1.9 km/h 1.9 km/h 78 % 0.0 mm
12:53 11.1 °C 7.4 °C 1024.9 hPa ENE 3.7 km/h 3.7 km/h 78 % 0.0 mm
12:58 11.2 °C 7.5 °C 1023.9 hPa ENE 3.7 km/h 3.7 km/h 78 % 0.0 mm
13:03 11.4 °C 7.5 °C 1023.9 hPa NE 3.9 km/h 3.9 km/h 77 % 0.0 mm
13:08 11.4 °C 7.5 °C 1023.9 hPa Calm     77 % 0.0 mm
13:13 11.7 °C 7.8 °C 1023.9 hPa ENE 2.3 km/h 2.3 km/h 77 % 0.0 mm
13:23 11.9 °C 7.8 °C 1023.9 hPa NE 3.7 km/h   76 % 0.0 mm
13:28 12.1 °C 8.0 °C 1023.9 hPa ENE 3.9 km/h 3.9 km/h 76 % 0.0 mm
13:33 12.5 °C 8.4 °C 1023.9 hPa East 3.7 km/h 3.7 km/h 76 % 0.0 mm
13:38 12.5 °C 8.4 °C 1023.9 hPa East 2.3 km/h   76 % 0.0 mm
13:43 12.6 °C 8.5 °C 1023.9 hPa SE 2.3 km/h 2.3 km/h 76 % 0.0 mm
13:48 12.9 °C 8.8 °C 1023.9 hPa SE 3.7 km/h 3.7 km/h 76 % 0.0 mm
13:53 13.0 °C 9.1 °C 1023.9 hPa WSW 3.7 km/h 3.7 km/h 77 % 0.0 mm
13:58 13.2 °C 9.3 °C 1022.9 hPa WSW 5.6 km/h 5.6 km/h 77 % 0.0 mm
14:03 13.1 °C 9.2 °C 1022.9 hPa SW 5.6 km/h 5.6 km/h 77 % 0.0 mm
14:08 13.3 °C 9.3 °C 1022.9 hPa Calm     77 % 0.0 mm
14:13 13.4 °C 9.4 °C 1022.9 hPa SSW 1.9 km/h   77 % 0.0 mm
14:18 13.5 °C 9.6 °C 1022.9 hPa SW 5.6 km/h 5.6 km/h 77 % 0.0 mm
14:23 13.6 °C 9.4 °C 1022.9 hPa SW 1.9 km/h 1.9 km/h 76 % 0.0 mm
14:28 13.8 °C 9.7 °C 1021.9 hPa SW 3.7 km/h 3.7 km/h 76 % 0.0 mm
14:33 13.9 °C 9.7 °C 1021.9 hPa SSW 3.7 km/h 3.7 km/h 76 % 0.0 mm
14:43 13.9 °C 9.6 °C 1021.9 hPa WSW 5.6 km/h 5.6 km/h 75 % 0.0 mm
14:48 13.9 °C 9.6 °C 1021.9 hPa SW 5.6 km/h 5.6 km/h 75 % 0.0 mm
14:58 13.8 °C 9.4 °C 1021.9 hPa SW 5.6 km/h 5.6 km/h 75 % 0.0 mm
15:03 13.8 °C 9.2 °C 1021.9 hPa SW 9.3 km/h 9.3 km/h 74 % 0.0 mm
15:08 13.7 °C 9.2 °C 1021.9 hPa WSW 3.7 km/h 3.7 km/h 74 % 0.0 mm
15:13 13.8 °C 9.2 °C 1021.9 hPa SW 3.7 km/h 3.7 km/h 74 % 0.0 mm
15:18 14.0 °C 9.6 °C 1021.9 hPa SW 3.9 km/h 3.9 km/h 75 % 0.0 mm
15:23 14.0 °C 9.6 °C 1021.9 hPa SW 4.2 km/h 4.2 km/h 75 % 0.0 mm
15:28 14.0 °C 9.4 °C 1021.9 hPa West 9.3 km/h 9.3 km/h 74 % 0.0 mm
15:33 14.1 °C 9.6 °C 1021.9 hPa SW 6.4 km/h 6.4 km/h 74 % 0.0 mm
15:38 14.1 °C 9.6 °C 1021.9 hPa SW 3.7 km/h 3.7 km/h 74 % 0.0 mm
15:43 14.2 °C 9.6 °C 1021.9 hPa SW 3.7 km/h 3.9 km/h 74 % 0.0 mm
15:48 14.2 °C 9.6 °C 1021.9 hPa WSW 7.4 km/h 7.4 km/h 74 % 0.0 mm
15:53 14.2 °C 9.6 °C 1021.9 hPa SW 7.4 km/h 7.4 km/h 74 % 0.0 mm
15:58 14.2 °C 9.4 °C 1021.9 hPa SW 5.6 km/h 5.6 km/h 73 % 0.0 mm
16:03 14.2 °C 9.6 °C 1021.9 hPa SSW 4.7 km/h 4.7 km/h 74 % 0.0 mm
16:08 14.2 °C 9.4 °C 1021.9 hPa SW 9.3 km/h 9.3 km/h 73 % 0.0 mm
16:13 14.2 °C 9.4 °C 1020.9 hPa SW 3.7 km/h 4.7 km/h 73 % 0.0 mm
16:18 14.2 °C 9.4 °C 1020.9 hPa SW 5.6 km/h 5.6 km/h 73 % 0.0 mm
16:23 14.1 °C 9.3 °C 1020.9 hPa SW 3.9 km/h 3.9 km/h 73 % 0.0 mm
16:28 14.1 °C 9.3 °C 1020.9 hPa WSW 5.6 km/h 5.6 km/h 73 % 0.0 mm
16:33 14.1 °C 9.3 °C 1020.9 hPa SW 7.4 km/h 7.4 km/h 73 % 0.0 mm
16:38 14.0 °C 9.2 °C 1020.9 hPa West 4.7 km/h 4.7 km/h 73 % 0.0 mm
16:43 14.0 °C 9.2 °C 1020.9 hPa SW 7.4 km/h 7.4 km/h 73 % 0.0 mm
16:48 14.0 °C 9.2 °C 1020.9 hPa WSW 5.6 km/h 5.6 km/h 73 % 0.0 mm
16:53 13.9 °C 9.1 °C 1020.9 hPa WSW 5.6 km/h 5.6 km/h 73 % 0.0 mm
16:58 13.9 °C 9.1 °C 1020.9 hPa WSW 5.6 km/h 5.6 km/h 73 % 0.0 mm
17:03 13.8 °C 9.2 °C 1020.9 hPa WSW 3.7 km/h 3.7 km/h 74 % 0.0 mm
17:08 13.8 °C 9.2 °C 1020.9 hPa SW 3.7 km/h 3.7 km/h 74 % 0.0 mm
17:13 13.7 °C 9.2 °C 1019.9 hPa SW 5.6 km/h 5.6 km/h 74 % 0.0 mm
17:18 13.6 °C 9.1 °C 1019.9 hPa SW 5.6 km/h 5.6 km/h 74 % 0.0 mm
17:23 13.5 °C 9.2 °C 1019.9 hPa SW 7.4 km/h 7.4 km/h 75 % 0.0 mm
17:28 13.3 °C 9.2 °C 1019.9 hPa SSW 5.6 km/h 5.6 km/h 76 % 0.0 mm
17:33 13.1 °C 8.9 °C 1019.9 hPa SW 3.7 km/h 3.9 km/h 76 % 0.0 mm
17:38 13.0 °C 9.1 °C 1019.9 hPa SW 5.6 km/h 5.6 km/h 77 % 0.0 mm
17:43 12.9 °C 8.9 °C 1019.9 hPa SW 4.2 km/h 5.0 km/h 77 % 0.0 mm
17:48 12.8 °C 8.9 °C 1019.9 hPa SSW 6.4 km/h 6.4 km/h 77 % 0.0 mm
17:53 12.7 °C 8.9 °C 1019.9 hPa SW 5.6 km/h 5.6 km/h 78 % 0.0 mm
17:58 12.5 °C 8.8 °C 1019.9 hPa WSW 7.4 km/h 7.4 km/h 78 % 0.0 mm
18:03 12.4 °C 8.8 °C 1019.9 hPa SW 7.4 km/h 7.4 km/h 79 % 0.0 mm
18:06 12.4 °C 8.8 °C 1019.9 hPa SW 3.7 km/h 3.9 km/h 79 % 0.0 mm
18:07 12.4 °C 8.8 °C 1019.9 hPa WSW 6.9 km/h 6.9 km/h 79 % 0.0 mm
18:12 12.3 °C 8.8 °C 1019.9 hPa WSW 5.6 km/h 5.6 km/h 79 % 0.0 mm
18:17 12.1 °C 8.6 °C 1019.9 hPa SW 4.7 km/h 4.7 km/h 79 % 0.0 mm
18:22 12.1 °C 8.8 °C 1019.9 hPa SW 5.6 km/h 5.6 km/h 80 % 0.0 mm
18:27 11.9 °C 8.6 °C 1018.8 hPa SW 4.2 km/h 4.2 km/h 80 % 0.0 mm
18:32 11.9 °C 8.6 °C 1018.8 hPa SW 3.5 km/h 3.5 km/h 80 % 0.0 mm
18:37 11.8 °C 8.4 °C 1018.8 hPa WSW 3.9 km/h 3.9 km/h 80 % 0.0 mm
18:42 11.7 °C 8.6 °C 1018.8 hPa WSW 5.6 km/h 5.6 km/h 81 % 0.0 mm
18:47 11.6 °C 8.4 °C 1018.8 hPa West 3.7 km/h 3.7 km/h 81 % 0.0 mm
18:52 11.5 °C 8.3 °C 1018.8 hPa WSW 3.7 km/h 3.7 km/h 81 % 0.0 mm
18:57 11.4 °C 8.3 °C 1019.9 hPa SW 3.2 km/h 3.2 km/h 81 % 0.0 mm
19:02 11.4 °C 8.3 °C 1019.9 hPa WSW 2.6 km/h 2.6 km/h 81 % 0.0 mm
19:07 11.3 °C 8.2 °C 1019.9 hPa West 3.7 km/h 3.7 km/h 81 % 0.0 mm
19:12 11.2 °C 8.1 °C 1018.8 hPa SW 3.9 km/h 3.9 km/h 81 % 0.0 mm
19:17 11.2 °C 8.2 °C 1018.8 hPa WSW 3.7 km/h 3.7 km/h 82 % 0.0 mm
19:22 11.1 °C 8.3 °C 1018.8 hPa SW 1.9 km/h   83 % 0.0 mm
19:27 11.1 °C 8.2 °C 1019.9 hPa WSW 1.9 km/h   82 % 0.0 mm
19:32 11.0 °C 8.2 °C 1019.9 hPa WSW 1.9 km/h 1.9 km/h 83 % 0.0 mm
19:37 11.0 °C 8.2 °C 1019.9 hPa WSW 1.9 km/h   83 % 0.0 mm
19:42 11.0 °C 8.2 °C 1019.9 hPa SW 3.7 km/h 3.7 km/h 83 % 0.0 mm
19:47 10.9 °C 8.1 °C 1019.9 hPa WSW 3.2 km/h 3.2 km/h 83 % 0.0 mm
19:52 10.8 °C 8.0 °C 1019.9 hPa SW 1.9 km/h   83 % 0.0 mm
19:57 10.8 °C 8.0 °C 1019.9 hPa WSW 3.7 km/h 3.7 km/h 83 % 0.0 mm
20:02 10.7 °C 7.9 °C 1019.9 hPa WSW 3.9 km/h 3.9 km/h 83 % 0.0 mm
20:07 10.7 °C 8.1 °C 1019.9 hPa WSW 5.6 km/h 5.6 km/h 84 % 0.0 mm
20:12 10.6 °C 8.0 °C 1019.9 hPa SW 3.7 km/h 3.9 km/h 84 % 0.0 mm
20:17 10.4 °C 8.0 °C 1019.9 hPa SW 5.6 km/h 5.6 km/h 85 % 0.0 mm
20:22 10.4 °C 8.0 °C 1019.9 hPa WSW 3.7 km/h 3.7 km/h 85 % 0.0 mm
20:27 10.5 °C 8.3 °C 1019.9 hPa SW 3.7 km/h 4.2 km/h 86 % 0.0 mm
20:32 10.5 °C 8.3 °C 1019.9 hPa SW 3.7 km/h 3.7 km/h 86 % 0.0 mm
20:37 10.5 °C 8.3 °C 1019.9 hPa SW 1.9 km/h 2.6 km/h 86 % 0.0 mm
20:42 10.6 °C 8.5 °C 1019.9 hPa WSW 3.9 km/h 3.9 km/h 87 % 0.0 mm
20:47 10.6 °C 8.5 °C 1019.9 hPa West 5.0 km/h 5.0 km/h 87 % 0.0 mm
20:52 10.7 °C 8.6 °C 1019.9 hPa SW 5.3 km/h 5.3 km/h 87 % 0.0 mm
20:57 10.7 °C 8.6 °C 1019.9 hPa SW 4.2 km/h 4.2 km/h 87 % 0.0 mm
21:02 10.8 °C 8.7 °C 1019.9 hPa WSW 3.9 km/h 3.9 km/h 87 % 0.0 mm
21:07 10.8 °C 8.9 °C 1019.9 hPa WSW 3.7 km/h 3.7 km/h 88 % 0.0 mm
21:12 10.9 °C 9.0 °C 1019.9 hPa West 1.9 km/h 2.3 km/h 88 % 0.0 mm
21:17 10.9 °C 9.0 °C 1019.9 hPa WSW 4.7 km/h 5.0 km/h 88 % 0.0 mm
21:22 11.0 °C 9.1 °C 1019.9 hPa WSW 5.6 km/h 5.6 km/h 88 % 0.0 mm
21:27 11.0 °C 9.3 °C 1019.9 hPa SW 5.6 km/h 5.6 km/h 89 % 0.0 mm
21:32 11.0 °C 9.3 °C 1019.9 hPa WSW 3.7 km/h 3.7 km/h 89 % 0.0 mm
21:37 11.0 °C 9.3 °C 1019.9 hPa WSW 5.0 km/h 5.0 km/h 89 % 0.0 mm
21:42 10.9 °C 9.2 °C 1019.9 hPa SW 3.7 km/h 3.7 km/h 89 % 0.0 mm
21:47 10.8 °C 9.1 °C 1019.9 hPa SW 3.7 km/h 3.7 km/h 89 % 0.0 mm
21:52 10.7 °C 8.9 °C 1019.9 hPa WSW 3.7 km/h 3.7 km/h 89 % 0.0 mm
21:57 10.6 °C 8.7 °C 1018.8 hPa SW 1.9 km/h 2.3 km/h 88 % 0.0 mm
22:02 10.5 °C 8.6 °C 1018.8 hPa SW 1.9 km/h   88 % 0.0 mm
22:07 10.5 °C 8.6 °C 1018.8 hPa WSW 2.6 km/h 2.6 km/h 88 % 0.0 mm
22:12 10.4 °C 8.5 °C 1018.8 hPa WSW 3.7 km/h 3.7 km/h 88 % 0.0 mm
22:17 10.3 °C 8.4 °C 1018.8 hPa WSW 3.7 km/h 3.9 km/h 88 % 0.0 mm
22:22 10.2 °C 8.3 °C 1018.8 hPa SW 3.9 km/h 3.9 km/h 88 % 0.0 mm
22:27 10.1 °C 8.2 °C 1018.8 hPa SW 5.6 km/h 5.6 km/h 88 % 0.0 mm
22:32 10.0 °C 8.1 °C 1018.8 hPa SW 1.9 km/h 3.5 km/h 88 % 0.0 mm
22:37 10.0 °C 8.1 °C 1018.8 hPa SW 3.7 km/h 3.7 km/h 88 % 0.0 mm
22:42 10.0 °C 8.1 °C 1018.8 hPa WSW 3.9 km/h 3.9 km/h 88 % 0.0 mm
22:47 10.0 °C 8.1 °C 1018.8 hPa WSW 3.9 km/h 3.9 km/h 88 % 0.0 mm
22:52 10.0 °C 8.1 °C 1018.8 hPa WSW 3.9 km/h 3.9 km/h 88 % 0.0 mm
22:57 10.0 °C 8.1 °C 1018.8 hPa SW 2.6 km/h 4.2 km/h 88 % 0.0 mm
23:02 10.0 °C 8.3 °C 1018.8 hPa WSW 7.4 km/h 7.4 km/h 89 % 0.0 mm
23:07 10.1 °C 8.4 °C 1018.8 hPa SSW 4.7 km/h 4.7 km/h 89 % 0.0 mm
23:12 10.2 °C 8.6 °C 1018.8 hPa SW 4.2 km/h 4.2 km/h 90 % 0.0 mm
23:17 10.3 °C 8.7 °C 1018.8 hPa SW 5.6 km/h 5.6 km/h 90 % 0.0 mm
23:22 10.5 °C 8.9 °C 1018.8 hPa WSW 5.6 km/h 5.6 km/h 90 % 0.0 mm
Meteo Sesrovires
Elogis d' Weather Underground - 3.25 mb

Guio original per  Jim McMurry - jmcmurry@mwt.net Adaptat per a la plantilla per  Wim van der Kuil - Leuven-Template.eu

Trobareu la nostra informacio del temps tambe a:

Weather Underground

AWEKAS